Time;durP1;ratioP1;P1;durP2;ratioP2;P2;SDS_P1;SDS_P2;PMS_P1;PMS_P2;Temp;Humidity;BMP_temperature;BMP_pressure;BME280_temperature;BME280_humidity;BME280_pressure;Samples;Min_cycle;Max_cycle;Signal;HPM_P1;HPM_P2
2021/11/10 00:00:43;;;;;;;4.25;2.55;;;;;;;-0.30;71.75;102440.77;1681193;85;21194;-59
2021/11/10 00:03:49;;;;;;;5.20;2.42;;;;;;;-0.32;71.86;102456.13;1680766;85;21416;-60
2021/11/10 00:06:56;;;;;;;4.67;2.60;;;;;;;-0.34;72.00;102463.36;1681067;85;21265;-60
2021/11/10 00:10:02;;;;;;;4.50;2.47;;;;;;;-0.37;72.10;102446.87;1680637;85;21269;-60
2021/11/10 00:13:22;;;;;;;4.03;2.55;;;;;;;-0.40;72.20;102444.76;1680462;85;21225;-60
2021/11/10 00:16:27;;;;;;;3.25;2.40;;;;;;;-0.44;72.31;102449.83;1680587;85;21372;-59
2021/11/10 00:19:33;;;;;;;7.40;2.95;;;;;;;-0.49;72.43;102444.61;1680582;85;21357;-60
2021/11/10 00:22:39;;;;;;;4.70;2.75;;;;;;;-0.52;72.55;102449.22;1680750;85;21300;-60
2021/11/10 00:25:45;;;;;;;4.15;2.72;;;;;;;-0.54;72.65;102453.80;1680606;84;21195;-60
2021/11/10 00:28:51;;;;;;;3.10;2.33;;;;;;;-0.55;72.73;102470.85;1680454;85;21293;-59
2021/11/10 00:31:57;;;;;;;3.77;2.65;;;;;;;-0.55;72.76;102470.85;1680391;85;21242;-58
2021/11/10 00:35:03;;;;;;;6.05;2.95;;;;;;;-0.59;72.84;102466.53;1680636;85;21438;-61
2021/11/10 00:38:09;;;;;;;5.53;2.67;;;;;;;-0.61;72.92;102478.69;1680448;85;21372;-59
2021/11/10 00:41:13;;;;;;;5.25;2.67;;;;;;;-0.62;72.98;102477.41;1680610;85;21376;-59
2021/11/10 00:44:21;;;;;;;4.40;2.45;;;;;;;-0.67;73.02;102484.75;1680509;85;21281;-60
2021/11/10 00:47:26;;;;;;;4.87;2.35;;;;;;;-0.72;73.16;102486.25;1680688;83;21211;-60
2021/11/10 00:50:32;;;;;;;5.83;2.95;;;;;;;-0.74;73.26;102487.22;1680738;85;21194;-60
2021/11/10 00:53:39;;;;;;;5.22;2.80;;;;;;;-0.78;73.37;102482.89;1680544;85;21372;-60
2021/11/10 00:56:45;;;;;;;4.15;2.25;;;;;;;-0.81;73.43;102493.27;1680512;85;21337;-60
2021/11/10 00:59:50;;;;;;;4.78;2.58;;;;;;;-0.83;73.53;102499.64;1680540;85;21430;-59
2021/11/10 01:02:59;;;;;;;4.55;2.62;;;;;;;-0.85;73.60;102503.73;1680562;85;21237;-60
2021/11/10 01:06:06;;;;;;;4.95;2.58;;;;;;;-0.86;73.69;102504.67;1680408;85;21353;-60
2021/11/10 01:09:17;;;;;;;4.03;2.20;;;;;;;-0.88;73.79;102506.53;1680635;85;21415;-61
2021/11/10 01:12:21;;;;;;;3.92;2.83;;;;;;;-0.90;73.87;102505.69;1680665;85;21262;-60
2021/11/10 01:15:27;;;;;;;3.70;2.20;;;;;;;-0.91;73.91;102520.53;1680645;85;21369;-60
2021/11/10 01:18:32;;;;;;;5.42;2.70;;;;;;;-0.90;73.96;102516.90;1680488;85;21498;-60
2021/11/10 01:21:39;;;;;;;4.42;2.62;;;;;;;-0.94;73.95;102509.88;1680665;85;21400;-60
2021/11/10 01:24:46;;;;;;;4.03;2.37;;;;;;;-0.96;74.00;102517.11;1680621;85;21714;-60
2021/11/10 01:27:53;;;;;;;5.37;2.72;;;;;;;-0.97;74.07;102515.36;1680440;85;21329;-61
2021/11/10 01:31:03;;;;;;;5.05;2.60;;;;;;;-0.99;74.13;102518.56;1680909;85;21738;-59
2021/11/10 01:34:09;;;;;;;4.72;3.08;;;;;;;-1.01;74.16;102528.02;1680544;85;21373;-60
2021/11/10 01:37:16;;;;;;;4.10;2.42;;;;;;;-1.02;74.24;102534.79;1680563;85;21408;-59
2021/11/10 01:40:25;;;;;;;3.77;2.35;;;;;;;-1.05;74.25;102532.20;1680576;85;21289;-61
2021/11/10 01:43:31;;;;;;;4.58;2.62;;;;;;;-1.06;74.32;102534.48;1680595;85;21248;-60
2021/11/10 01:46:36;;;;;;;6.20;3.00;;;;;;;-1.08;74.35;102541.72;1680490;85;21182;-59
2021/11/10 01:49:44;;;;;;;7.62;2.77;;;;;;;-1.10;74.40;102538.19;1670942;85;21183;-60
2021/11/10 01:52:49;;;;;;;7.17;2.85;;;;;;;-1.13;74.47;102545.89;1670630;85;21289;-60
2021/11/10 01:55:57;;;;;;;4.62;2.50;;;;;;;-1.14;74.52;102544.61;1670885;85;21214;-60
2021/11/10 01:59:02;;;;;;;5.70;2.80;;;;;;;-1.13;74.58;102545.89;1670621;86;21218;-59
2021/11/10 02:02:11;;;;;;;5.08;2.90;;;;;;;-1.15;74.59;102550.89;1670778;85;21215;-61
2021/11/10 02:05:22;;;;;;;10.38;3.33;;;;;;;-1.16;74.61;102555.86;1671321;84;21210;-60
2021/11/10 02:08:29;;;;;;;4.10;2.50;;;;;;;-1.20;74.65;102556.86;1670547;86;21294;-60
2021/11/10 02:11:39;;;;;;;7.37;3.50;;;;;;;-1.23;74.73;102561.88;1670689;86;21222;-59
2021/11/10 02:14:47;;;;;;;5.10;2.72;;;;;;;-1.23;74.85;102561.88;1677591;84;21206;-60
2021/11/10 02:18:01;;;;;;;5.33;2.92;;;;;;;-1.25;74.84;102570.45;1672150;84;21249;-59
2021/11/10 02:21:12;;;;;;;6.10;3.10;;;;;;;-1.29;74.91;102575.52;1670862;85;21191;-59
2021/11/10 02:24:17;;;;;;;6.10;3.17;;;;;;;-1.33;74.98;102583.23;1670707;86;21215;-60
2021/11/10 02:27:27;;;;;;;3.98;2.75;;;;;;;-1.38;75.10;102593.27;1671246;85;21242;-61
2021/11/10 02:30:31;;;;;;;4.22;2.70;;;;;;;-1.37;75.20;102600.84;1671207;85;21230;-59
2021/11/10 02:33:37;;;;;;;6.08;3.15;;;;;;;-1.41;75.23;102600.05;1670748;85;21238;-61
2021/11/10 02:36:44;;;;;;;7.42;2.70;;;;;;;-1.41;75.28;102595.16;1670744;85;21218;-61
2021/11/10 02:39:50;;;;;;;5.45;2.70;;;;;;;-1.45;75.38;102594.81;1653496;86;21211;-61
2021/11/10 02:42:56;;;;;;;8.20;3.40;;;;;;;-1.47;75.47;102608.78;1671443;85;21233;-61
2021/11/10 02:46:02;;;;;;;7.97;4.05;;;;;;;-1.48;75.51;102605.66;1670617;86;21334;-61
2021/11/10 02:49:10;;;;;;;5.17;2.60;;;;;;;-1.51;75.60;102624.09;1670287;84;21226;-59
2021/11/10 02:52:22;;;;;;;7.78;3.52;;;;;;;-1.54;75.69;102618.33;1668698;85;21393;-60
2021/11/10 02:55:27;;;;;;;7.62;3.27;;;;;;;-1.54;75.75;102626.39;1669658;85;21353;-60
2021/11/10 02:58:32;;;;;;;6.53;3.35;;;;;;;-1.57;75.81;102637.22;1668816;85;21405;-59
2021/11/10 03:01:38;;;;;;;6.08;3.10;;;;;;;-1.60;75.90;102638.66;1652488;86;21278;-60
2021/11/10 03:04:51;;;;;;;6.75;3.27;;;;;;;-1.60;75.96;102640.00;1668296;86;21345;-60
2021/11/10 03:07:59;;;;;;;5.90;3.70;;;;;;;-1.62;76.03;102643.18;1668299;86;21357;-59
2021/11/10 03:11:06;;;;;;;5.58;3.70;;;;;;;-1.61;76.11;102645.41;1669125;85;21203;-61
2021/11/10 03:14:13;;;;;;;5.53;3.20;;;;;;;-1.62;76.14;102647.20;1668476;85;21396;-61
2021/11/10 03:17:22;;;;;;;7.03;3.50;;;;;;;-1.63;76.20;102650.83;1651544;86;21234;-62
2021/11/10 03:20:29;;;;;;;8.20;3.05;;;;;;;-1.62;76.17;102658.44;1668875;85;21271;-61
2021/11/10 03:23:36;;;;;;;5.65;2.80;;;;;;;-1.65;76.17;102663.41;1668580;86;21369;-60
2021/11/10 03:26:44;;;;;;;5.97;3.17;;;;;;;-1.67;76.22;102662.59;1668520;85;21349;-60
2021/11/10 03:29:53;;;;;;;4.47;2.80;;;;;;;-1.69;76.25;102672.48;1668374;86;21219;-60
2021/11/10 03:33:11;;;;;;;10.13;3.20;;;;;;;-1.71;76.27;102671.64;1655627;84;21365;-60
2021/11/10 03:36:18;;;;;;;7.50;3.17;;;;;;;-1.74;76.35;102665.02;1669043;85;21259;-60
2021/11/10 03:39:24;;;;;;;27.77;11.57;;;;;;;-1.75;76.39;102669.98;1668468;86;21689;-60
2021/11/10 03:42:31;;;;;;;14.20;6.10;;;;;;;-1.77;76.48;102679.87;1646059;86;21268;-60
2021/11/10 03:45:40;;;;;;;7.03;3.83;;;;;;;-1.80;76.51;102687.12;1668686;86;22015;-60
2021/11/10 03:48:46;;;;;;;8.33;3.67;;;;;;;-1.82;76.54;102693.88;1668700;85;21365;-60
2021/11/10 03:51:53;;;;;;;6.72;3.60;;;;;;;-1.84;76.60;102697.05;1670578;86;21269;-60
2021/11/10 03:55:00;;;;;;;7.47;3.58;;;;;;;-1.85;76.68;102701.12;1670607;86;21691;-60
2021/11/10 03:58:10;;;;;;;4.55;2.87;;;;;;;-1.86;76.73;102711.00;1670782;86;21270;-60
2021/11/10 04:01:17;;;;;;;5.83;3.22;;;;;;;-1.88;76.78;102706.57;1670930;85;21284;-61
2021/11/10 04:04:23;;;;;;;8.53;3.47;;;;;;;-1.90;76.75;102710.64;1671014;85;21238;-60
2021/11/10 04:07:30;;;;;;;6.70;3.15;;;;;;;-1.92;76.85;102719.66;1670595;85;21282;-58
2021/11/10 04:10:39;;;;;;;7.25;3.60;;;;;;;-1.92;76.91;102719.66;1671270;84;21661;-59
2021/11/10 04:13:44;;;;;;;5.45;2.98;;;;;;;-1.93;76.98;102717.87;1670857;85;21255;-60
2021/11/10 04:16:51;;;;;;;8.75;3.80;;;;;;;-1.92;77.04;102720.52;1670558;85;21219;-59
2021/11/10 04:19:58;;;;;;;8.25;3.80;;;;;;;-1.91;77.01;102718.73;1677408;85;21352;-59
2021/11/10 04:23:05;;;;;;;6.53;3.50;;;;;;;-1.93;76.96;102725.48;1670828;85;21262;-59
2021/11/10 04:26:12;;;;;;;7.62;3.83;;;;;;;-1.94;76.99;102721.50;1670788;86;21218;-59
2021/11/10 04:29:18;;;;;;;9.73;3.55;;;;;;;-1.95;77.06;102723.29;1677718;85;21423;-59
2021/11/10 04:32:24;;;;;;;8.15;4.00;;;;;;;-1.93;77.07;102731.30;1670552;86;21254;-59
2021/11/10 04:35:34;;;;;;;14.40;7.10;;;;;;;-1.96;76.98;102737.64;1670718;86;21187;-60
2021/11/10 04:38:53;;;;;;;10.53;4.75;;;;;;;-1.99;77.00;102737.73;1677937;85;21885;-61
2021/11/10 04:42:22;;;;;;;7.85;3.42;;;;;;;-2.02;76.98;102744.52;1543634;93;21282;-60
2021/11/10 04:49:40;;;;;;;7.62;3.85;;;;;;;-2.01;77.13;102746.27;1545885;92;21255;-59
2021/11/10 04:57:08;;;;;;;7.53;4.20;;;;;;;-2.06;77.08;102745.50;1544259;92;21243;-59
2021/11/10 05:12:16;;;;;;;6.90;3.92;;;;;;;-2.09;77.14;102770.17;1572526;85;21252;-59
2021/11/10 05:15:18;;;;;;;7.25;4.55;;;;;;;-2.10;77.14;102773.34;1680682;85;21204;-59
2021/11/10 05:18:29;;;;;;;6.83;4.22;;;;;;;-2.09;77.13;102783.14;1680794;84;21223;-57
2021/11/10 05:21:35;;;;;;;6.65;4.20;;;;;;;-2.09;77.11;102781.80;1680795;85;21203;-58
2021/11/10 05:24:58;;;;;;;7.00;3.98;;;;;;;-2.06;77.21;102785.74;1678808;85;21221;-59
2021/11/10 05:36:26;;;;;;;7.42;3.90;;;;;;;-1.95;77.26;102802.95;1683885;84;21198;-60
2021/11/10 05:46:56;;;;;;;12.00;5.62;;;;;;;-1.80;77.11;102808.81;1670162;85;21195;-59
2021/11/10 06:28:37;;;;;;;9.58;4.95;;;;;;;-0.98;76.03;102846.92;1835489;76;22871;-59
2021/11/10 06:31:56;;;;;;;25.48;18.32;;;;;;;-0.98;75.96;102846.92;1682135;80;21236;-58
2021/11/10 06:46:44;;;;;;;11.03;6.42;;;;;;;-0.45;75.17;102857.00;1687773;81;21231;-58
2021/11/10 06:49:58;;;;;;;26.23;21.25;;;;;;;-0.37;74.83;102850.92;1684917;81;21839;-60
2021/11/10 06:53:20;;;;;;;10.85;7.30;;;;;;;-0.33;74.40;102848.09;1687206;80;21336;-59
2021/11/10 06:56:26;;;;;;;7.17;5.30;;;;;;;-0.26;74.33;102842.06;1684254;81;21263;-59
2021/11/10 07:06:53;;;;;;;6.43;3.73;;;;;;;-0.07;73.42;102845.48;1685123;82;21236;-59
2021/11/10 07:09:59;;;;;;;6.78;3.12;;;;;;;-0.09;73.13;102837.92;1682001;83;21228;-58
2021/11/10 07:13:05;;;;;;;6.50;4.17;;;;;;;-0.06;73.07;102843.66;1626725;82;21246;-59
2021/11/10 07:16:11;;;;;;;13.55;7.83;;;;;;;-0.01;72.92;102845.74;1643132;83;21299;-59
2021/11/10 07:19:20;;;;;;;10.75;4.67;;;;;;;0.05;72.86;102844.20;1663220;83;21274;-58
2021/11/10 07:22:26;;;;;;;6.87;3.55;;;;;;;0.11;72.67;102844.02;1677953;82;21222;-61
2021/11/10 07:25:37;;;;;;;10.68;4.37;;;;;;;0.16;72.46;102854.16;1668796;83;21793;-57
2021/11/10 07:28:42;;;;;;;9.10;4.28;;;;;;;0.19;72.16;102854.54;1717108;79;21298;-59
2021/11/10 07:31:49;;;;;;;5.92;3.30;;;;;;;0.23;71.97;102863.81;1762389;79;21252;-57
2021/11/10 07:34:54;;;;;;;7.92;3.65;;;;;;;0.22;71.78;102858.48;1756203;80;21253;-57
2021/11/10 07:38:01;;;;;;;7.12;3.67;;;;;;;0.24;71.78;102852.09;1759688;78;21269;-57
2021/11/10 07:41:11;;;;;;;23.62;7.60;;;;;;;0.25;71.70;102844.45;1743003;76;21731;-58
2021/11/10 07:44:17;;;;;;;14.83;5.65;;;;;;;0.33;71.78;102846.88;1793062;77;21233;-58
2021/11/10 07:47:29;;;;;;;10.80;4.62;;;;;;;0.44;71.79;102854.14;1770124;78;21247;-58
2021/11/10 07:50:34;;;;;;;15.18;5.15;;;;;;;0.53;71.63;102860.10;1767997;78;21589;-57
2021/11/10 07:53:46;;;;;;;8.63;4.72;;;;;;;0.55;71.17;102852.86;1763867;77;21786;-58
2021/11/10 07:56:53;;;;;;;10.70;4.37;;;;;;;0.55;71.08;102851.52;1770380;78;21723;-57
2021/11/10 07:59:59;;;;;;;11.95;4.45;;;;;;;0.63;71.06;102856.63;1726157;79;21362;-58
2021/11/10 08:03:06;;;;;;;8.33;3.85;;;;;;;0.72;70.96;102855.84;1775631;77;21346;-58
2021/11/10 08:06:13;;;;;;;7.72;4.22;;;;;;;0.80;70.94;102857.81;1777438;77;21761;-58
2021/11/10 08:09:18;;;;;;;8.50;4.22;;;;;;;0.93;70.84;102860.95;1788335;78;21208;-60
2021/11/10 08:12:27;;;;;;;6.30;3.95;;;;;;;1.00;70.27;102866.06;1768449;77;21196;-60
2021/11/10 08:15:34;;;;;;;6.97;3.77;;;;;;;1.05;69.99;102865.90;1796187;78;21319;-60
2021/11/10 08:18:40;;;;;;;10.30;5.22;;;;;;;1.14;69.88;102867.80;1768881;77;21921;-59
2021/11/10 08:21:46;;;;;;;8.30;4.70;;;;;;;1.24;69.58;102874.63;1796729;77;21402;-59
2021/11/10 08:24:53;;;;;;;10.68;4.90;;;;;;;1.33;69.14;102878.33;1759159;77;21264;-59
2021/11/10 08:28:00;;;;;;;7.30;4.15;;;;;;;1.37;68.88;102871.02;1766338;77;21252;-58
2021/11/10 08:31:06;;;;;;;7.75;4.25;;;;;;;1.48;68.80;102872.39;1785164;77;21271;-59
2021/11/10 08:34:14;;;;;;;6.78;4.05;;;;;;;1.56;68.51;102865.34;1762368;80;21800;-60
2021/11/10 08:37:20;;;;;;;9.10;4.00;;;;;;;1.66;68.13;102868.57;1772465;79;21256;-58
2021/11/10 08:40:27;;;;;;;7.70;3.58;;;;;;;1.70;67.73;102871.09;1762600;77;21378;-59
2021/11/10 08:43:33;;;;;;;9.70;4.10;;;;;;;1.75;67.47;102866.86;1762556;77;21255;-60
2021/11/10 08:46:39;;;;;;;6.30;3.80;;;;;;;1.80;67.21;102864.86;1758645;77;21283;-59
2021/11/10 08:49:43;;;;;;;9.53;4.15;;;;;;;1.85;66.89;102864.22;1771618;77;21800;-59
2021/11/10 08:52:49;;;;;;;5.97;3.35;;;;;;;1.93;66.19;102875.61;1791092;78;21390;-59
2021/11/10 08:55:59;;;;;;;10.43;5.30;;;;;;;1.95;65.74;102867.84;1773854;76;21744;-60
2021/11/10 09:06:40;;;;;;;6.87;3.05;;;;;;;2.07;63.71;102882.69;1775166;77;21792;-59
2021/11/10 09:09:46;;;;;;;5.40;3.30;;;;;;;2.04;63.24;102876.95;1769339;80;21363;-59
2021/11/10 09:12:56;;;;;;;4.70;2.80;;;;;;;2.11;62.78;102876.24;1767138;77;21844;-59
2021/11/10 09:16:01;;;;;;;5.17;2.77;;;;;;;2.20;62.25;102878.56;1724819;78;21240;-59
2021/11/10 09:19:09;;;;;;;5.33;3.30;;;;;;;2.27;61.92;102871.49;1747534;78;21947;-61
2021/11/10 09:22:18;;;;;;;8.08;3.27;;;;;;;2.34;60.69;102875.72;1772060;79;21726;-60
2021/11/10 09:25:25;;;;;;;10.38;2.95;;;;;;;2.33;59.92;102869.88;1774983;78;21268;-59
2021/11/10 09:28:32;;;;;;;6.20;3.08;;;;;;;2.40;60.19;102874.57;1770570;77;21322;-59
2021/11/10 09:31:40;;;;;;;21.10;12.43;;;;;;;2.48;59.18;102864.33;1794028;77;21930;-58
2021/11/10 09:50:17;;;;;;;5.47;3.55;;;;;;;2.88;58.50;102858.98;1790043;77;21895;-58
2021/11/10 11:10:35;;;;;;;6.58;3.40;;;;;;;4.57;49.03;102793.02;1774136;76;21222;-58
2021/11/10 11:14:03;;;;;;;7.83;4.45;;;;;;;4.66;49.24;102794.39;1782152;78;21209;-57
2021/11/10 11:17:14;;;;;;;10.25;6.67;;;;;;;4.70;49.15;102787.83;1766399;78;21181;-58
2021/11/10 11:20:23;;;;;;;4.95;3.27;;;;;;;4.84;49.20;102786.63;1795492;78;21283;-57
2021/11/10 11:23:28;;;;;;;8.83;3.08;;;;;;;4.98;48.46;102784.56;1760121;79;21249;-57
2021/11/10 11:26:42;;;;;;;4.35;2.40;;;;;;;5.03;47.80;102787.88;1779421;78;21832;-58
2021/11/10 11:29:51;;;;;;;5.42;3.10;;;;;;;5.05;47.29;102795.47;1777857;77;21337;-58
2021/11/10 11:32:59;;;;;;;7.55;4.97;;;;;;;5.10;47.38;102792.03;1769975;77;21338;-57
2021/11/10 11:36:10;;;;;;;7.42;5.45;;;;;;;5.24;47.03;102795.77;1750518;79;21208;-57
2021/11/10 11:39:17;;;;;;;10.38;5.62;;;;;;;5.34;46.80;102789.36;1774546;79;21343;-59
2021/11/10 11:42:33;;;;;;;8.15;3.65;;;;;;;5.45;46.42;102801.87;1784867;78;22122;-59
2021/11/10 11:45:43;;;;;;;6.53;3.67;;;;;;;5.54;46.34;102794.56;1780324;76;21291;-59
2021/11/10 11:48:54;;;;;;;5.58;3.35;;;;;;;5.65;46.21;102794.84;1783782;76;21260;-59
2021/11/10 11:51:58;;;;;;;9.83;5.67;;;;;;;5.74;46.24;102786.20;1785333;78;21824;-59
2021/11/10 11:55:07;;;;;;;5.17;3.00;;;;;;;5.87;46.03;102796.78;1764073;76;21204;-60
2021/11/10 11:58:21;;;;;;;17.27;8.93;;;;;;;5.88;45.58;102791.76;1769887;77;21235;-60
2021/11/10 12:01:34;;;;;;;11.85;5.78;;;;;;;5.96;45.49;102801.72;1768454;78;21321;-60
2021/11/10 12:04:40;;;;;;;9.05;4.72;;;;;;;5.94;44.61;102806.35;1797187;76;21215;-59
2021/11/10 12:08:02;;;;;;;4.62;2.60;;;;;;;5.85;44.55;102805.52;1793524;79;21275;-58
2021/11/10 12:11:34;;;;;;;5.80;2.85;;;;;;;5.82;43.91;102807.91;1702814;80;21264;-58
2021/11/10 12:15:07;;;;;;;6.03;3.50;;;;;;;5.73;44.11;102801.61;1763280;77;21199;-60
2021/11/10 12:18:33;;;;;;;8.33;3.83;;;;;;;5.81;44.15;102797.98;1739977;78;21255;-59
2021/11/10 12:21:56;;;;;;;9.55;4.50;;;;;;;5.94;44.00;102815.88;1776665;77;21217;-59
2021/11/10 12:25:09;;;;;;;8.40;4.83;;;;;;;5.94;43.26;102812.67;1760557;79;22128;-60
2021/11/10 12:28:38;;;;;;;7.28;3.87;;;;;;;5.89;42.91;102811.17;1773773;77;21254;-61
2021/11/10 12:31:50;;;;;;;4.70;3.02;;;;;;;5.85;42.67;102817.25;1759252;78;21290;-60
2021/11/10 12:34:57;;;;;;;12.03;5.07;;;;;;;5.85;42.53;102811.81;1758680;80;21232;-60
2021/11/10 12:38:07;;;;;;;13.10;5.45;;;;;;;5.91;42.78;102822.84;1752673;81;21378;-60
2021/11/10 12:41:13;;;;;;;7.87;4.03;;;;;;;6.00;42.53;102824.56;1763474;79;21307;-58
2021/11/10 12:44:47;;;;;;;7.90;2.75;;;;;;;6.04;42.53;102832.06;1763235;78;21220;-59
2021/11/10 12:47:56;;;;;;;7.40;3.17;;;;;;;6.04;42.67;102823.41;1764382;79;21288;-61
2021/11/10 12:51:02;;;;;;;7.25;2.85;;;;;;;6.06;42.46;102829.64;1766654;77;21260;-59
2021/11/10 12:54:12;;;;;;;8.70;2.98;;;;;;;6.04;42.26;102832.06;1756919;79;21176;-60
2021/11/10 12:57:19;;;;;;;6.78;2.92;;;;;;;6.01;42.27;102834.93;1768076;77;21263;-59
2021/11/10 13:00:30;;;;;;;6.47;3.75;;;;;;;6.00;42.25;102835.91;1757450;78;21628;-59
2021/11/10 13:03:38;;;;;;;7.50;3.15;;;;;;;5.99;42.42;102836.88;1774028;78;21545;-60
2021/11/10 13:06:55;;;;;;;8.13;4.05;;;;;;;6.01;42.43;102837.65;1777065;76;21215;-59
2021/11/10 13:10:22;;;;;;;11.03;3.75;;;;;;;6.01;42.35;102836.29;1774232;77;21212;-59
2021/11/10 13:13:30;;;;;;;7.05;3.17;;;;;;;5.99;42.26;102839.09;1774091;78;21204;-60
2021/11/10 13:16:34;;;;;;;5.78;2.58;;;;;;;6.00;42.37;102850.86;1772000;76;21207;-60
2021/11/10 13:20:12;;;;;;;5.80;3.00;;;;;;;5.97;42.11;102845.59;1794388;78;22037;-59
2021/11/10 13:23:17;;;;;;;7.47;2.95;;;;;;;5.94;42.25;102845.77;1794384;76;21725;-60
2021/11/10 13:26:25;;;;;;;5.58;3.22;;;;;;;5.91;42.17;102837.80;1772538;77;21269;-60
2021/11/10 13:29:31;;;;;;;5.10;3.02;;;;;;;5.89;42.24;102837.88;1764912;79;21222;-60
2021/11/10 13:32:36;;;;;;;7.00;3.50;;;;;;;5.84;42.09;102839.09;1706365;80;21271;-60
2021/11/10 13:35:44;;;;;;;10.65;5.67;;;;;;;5.80;42.15;102845.13;1762806;78;21247;-58
2021/11/10 13:39:09;;;;;;;11.18;5.87;;;;;;;5.72;42.26;102841.11;1763247;80;21725;-60
2021/11/10 13:42:33;;;;;;;11.43;5.35;;;;;;;5.64;42.62;102835.22;1760358;79;21351;-61
2021/11/10 13:45:43;;;;;;;11.93;4.10;;;;;;;5.55;42.74;102839.81;1802536;79;21838;-59
2021/11/10 13:48:49;;;;;;;15.93;5.20;;;;;;;5.42;42.95;102849.07;1787009;78;22316;-60
2021/11/10 13:52:14;;;;;;;13.72;6.33;;;;;;;5.31;43.10;102850.13;1768153;78;21586;-59
2021/11/10 13:55:23;;;;;;;13.65;7.30;;;;;;;5.21;43.37;102851.61;1776418;77;21349;-61
2021/11/10 13:58:41;;;;;;;17.62;10.88;;;;;;;5.10;43.65;102855.84;1767774;78;21190;-59
2021/11/10 14:02:03;;;;;;;40.45;20.62;;;;;;;5.02;43.87;102848.10;1762586;79;21569;-59
2021/11/10 14:05:13;;;;;;;43.28;18.90;;;;;;;4.95;44.11;102848.52;1777484;77;21778;-58
2021/11/10 14:08:24;;;;;;;24.57;13.15;;;;;;;4.86;44.30;102850.32;1755823;80;21693;-58
2021/11/10 14:11:39;;;;;;;22.77;12.03;;;;;;;4.76;44.58;102846.34;1745177;79;21278;-59
2021/11/10 14:14:50;;;;;;;26.48;12.70;;;;;;;4.67;44.86;102849.04;1765762;77;21418;-59
2021/11/10 14:18:06;;;;;;;27.93;13.48;;;;;;;4.56;45.15;102844.17;1754149;77;21231;-60
2021/11/10 14:21:16;;;;;;;29.35;15.30;;;;;;;4.45;45.52;102837.52;1747552;79;21201;-59
2021/11/10 14:24:31;;;;;;;37.50;18.10;;;;;;;4.34;45.91;102844.81;1753721;78;21817;-61
2021/11/10 14:27:44;;;;;;;135.52;50.15;;;;;;;4.24;46.31;102843.53;1754844;78;21303;-60
2021/11/10 14:31:05;;;;;;;126.55;49.30;;;;;;;4.14;46.66;102847.64;1731538;81;21299;-60
2021/11/10 14:34:11;;;;;;;204.32;81.17;;;;;;;4.04;47.18;102842.75;1756357;78;21393;-61
2021/11/10 14:37:31;;;;;;;176.10;70.70;;;;;;;3.92;48.07;102841.50;1791438;77;21484;-61
2021/11/10 14:40:46;;;;;;;215.25;87.95;;;;;;;3.82;48.64;102845.59;1777896;77;21268;-60
2021/11/10 14:44:07;;;;;;;159.43;66.85;;;;;;;3.71;49.48;102835.73;1747545;79;21212;-60
2021/11/10 14:47:13;;;;;;;129.55;52.90;;;;;;;3.58;50.06;102850.83;1757749;79;21235;-60
2021/11/10 14:50:19;;;;;;;94.05;38.95;;;;;;;3.43;50.34;102849.27;1753698;77;21197;-59
2021/11/10 14:53:29;;;;;;;112.05;49.63;;;;;;;3.29;50.66;102840.44;1742205;78;21788;-60
2021/11/10 14:56:36;;;;;;;77.10;35.58;;;;;;;3.19;51.12;102849.91;1766274;80;21244;-60
2021/11/10 14:59:43;;;;;;;98.72;37.70;;;;;;;3.09;51.73;102851.30;1767711;79;21185;-59
2021/11/10 15:02:50;;;;;;;128.68;57.88;;;;;;;3.00;52.27;102851.21;1764305;79;21267;-60
2021/11/10 15:05:56;;;;;;;206.00;86.30;;;;;;;2.95;51.96;102860.47;1756084;78;21256;-61
2021/11/10 15:09:10;;;;;;;176.32;70.60;;;;;;;2.93;51.75;102859.67;1763632;77;21273;-61
2021/11/10 15:12:23;;;;;;;217.30;91.97;;;;;;;2.90;51.64;102855.26;1761934;79;21271;-60
2021/11/10 15:15:33;;;;;;;104.23;46.60;;;;;;;2.88;51.80;102856.28;1752298;79;21328;-60
2021/11/10 15:18:44;;;;;;;157.27;66.85;;;;;;;2.83;51.81;102849.73;1766505;79;21247;-60
2021/11/10 15:21:53;;;;;;;93.07;40.88;;;;;;;2.80;52.01;102862.50;1778922;79;21197;-61
2021/11/10 15:25:00;;;;;;;123.58;54.58;;;;;;;2.72;52.43;102857.88;1775232;77;21181;-61
2021/11/10 15:28:10;;;;;;;153.53;68.25;;;;;;;2.65;52.63;102857.27;1764297;81;21224;-61
2021/11/10 15:31:16;;;;;;;236.15;96.85;;;;;;;2.58;53.56;102857.59;1750158;78;21200;-61
2021/11/10 15:34:23;;;;;;;243.10;99.30;;;;;;;2.52;54.20;102863.27;1759328;79;21281;-61
2021/11/10 15:37:31;;;;;;;212.55;89.22;;;;;;;2.41;54.58;102853.37;1722388;79;21398;-61
2021/11/10 15:40:39;;;;;;;199.50;84.75;;;;;;;2.27;54.70;102846.28;1768422;79;21694;-60
2021/11/10 15:43:47;;;;;;;228.77;97.37;;;;;;;2.19;55.09;102849.30;1741100;78;21766;-60
2021/11/10 15:46:53;;;;;;;246.05;108.32;;;;;;;2.12;55.40;102859.08;1758181;79;21267;-60
2021/11/10 15:49:59;;;;;;;273.30;123.05;;;;;;;2.06;55.72;102862.89;1773752;77;21284;-60
2021/11/10 15:53:13;;;;;;;297.23;129.27;;;;;;;1.93;55.78;102873.80;1717795;82;21177;-60
2021/11/10 15:56:19;;;;;;;406.67;182.60;;;;;;;1.83;56.15;102883.19;1710661;79;22173;-60
2021/11/10 15:59:29;;;;;;;377.52;165.00;;;;;;;1.76;56.41;102879.44;1781079;77;21360;-59
2021/11/10 16:02:37;;;;;;;380.02;170.28;;;;;;;1.67;56.81;102879.77;1792470;79;21350;-60
2021/11/10 16:05:48;;;;;;;374.18;172.43;;;;;;;1.56;57.32;102866.69;1798651;77;21208;-60
2021/11/10 16:08:58;;;;;;;390.50;181.00;;;;;;;1.49;57.75;102865.17;1776444;77;21967;-63
2021/11/10 16:12:03;;;;;;;383.62;173.02;;;;;;;1.46;58.16;102871.55;1779446;77;21737;-60
2021/11/10 16:15:09;;;;;;;371.20;166.65;;;;;;;1.42;58.26;102875.32;1759590;80;21224;-61
2021/11/10 16:18:15;;;;;;;350.38;154.03;;;;;;;1.37;58.30;102882.70;1763329;77;21507;-60
2021/11/10 16:21:26;;;;;;;293.70;141.62;;;;;;;1.31;58.31;102876.19;1762875;79;21377;-61
2021/11/10 16:24:37;;;;;;;350.85;153.62;;;;;;;1.26;58.26;102873.23;1761211;78;21236;-60
2021/11/10 16:27:55;;;;;;;359.30;156.43;;;;;;;1.22;58.79;102877.84;1740705;77;21242;-60
2021/11/10 16:30:58;;;;;;;390.98;173.85;;;;;;;1.19;59.38;102876.61;1752815;78;21297;-60
2021/11/10 16:34:04;;;;;;;360.13;155.43;;;;;;;1.15;59.69;102884.42;1771988;77;21247;-60
2021/11/10 16:37:10;;;;;;;375.22;167.22;;;;;;;1.14;59.64;102875.03;1764118;77;21346;-61
2021/11/10 16:40:19;;;;;;;368.90;164.30;;;;;;;1.11;59.90;102877.35;1767922;78;21575;-61
2021/11/10 16:43:27;;;;;;;392.35;174.05;;;;;;;1.03;60.12;102881.28;1773597;78;21626;-61
2021/11/10 16:46:34;;;;;;;408.62;185.20;;;;;;;0.93;60.23;102879.38;1738904;77;21357;-61
2021/11/10 16:49:46;;;;;;;365.77;157.88;;;;;;;0.87;60.54;102886.30;1725307;80;21286;-60
2021/11/10 16:52:56;;;;;;;355.77;158.45;;;;;;;0.84;60.88;102889.59;1764190;81;21300;-60
2021/11/10 16:56:04;;;;;;;398.10;178.93;;;;;;;0.74;61.17;102895.77;1736413;78;21461;-61
2021/11/10 16:59:11;;;;;;;379.87;169.75;;;;;;;0.70;61.61;102902.67;1690290;78;21301;-62
2021/11/10 17:02:21;;;;;;;374.98;172.75;;;;;;;0.66;61.85;102897.84;1753908;77;21347;-61
2021/11/10 17:05:31;;;;;;;393.23;179.45;;;;;;;0.66;62.09;102894.25;1738404;78;21156;-60
2021/11/10 17:08:43;;;;;;;434.57;202.57;;;;;;;0.63;62.11;102900.64;1739728;79;21225;-61
2021/11/10 17:11:51;;;;;;;391.20;175.38;;;;;;;0.56;62.13;102896.38;1715329;78;21894;-61
2021/11/10 17:14:59;;;;;;;371.15;170.62;;;;;;;0.51;62.43;102902.38;1736766;78;21260;-60
2021/11/10 17:18:08;;;;;;;384.80;180.63;;;;;;;0.47;62.70;102896.69;1701624;78;21291;-59
2021/11/10 17:21:17;;;;;;;392.95;192.03;;;;;;;0.42;62.99;102897.30;1771811;76;21383;-60
2021/11/10 17:24:29;;;;;;;419.40;202.22;;;;;;;0.39;63.36;102892.02;1797232;78;21208;-60
2021/11/10 17:27:34;;;;;;;433.23;210.13;;;;;;;0.38;63.57;102888.03;1785194;79;21240;-60
2021/11/10 17:30:40;;;;;;;479.48;231.02;;;;;;;0.34;63.75;102891.28;1764207;78;21238;-60
2021/11/10 17:33:53;;;;;;;457.35;214.60;;;;;;;0.30;64.00;102888.28;1752913;78;21228;-60
2021/11/10 17:37:08;;;;;;;450.45;212.02;;;;;;;0.29;64.32;102878.88;1751732;77;21771;-60
2021/11/10 17:40:11;;;;;;;453.68;210.72;;;;;;;0.26;64.50;102873.14;1745371;78;21252;-61
2021/11/10 17:43:21;;;;;;;453.90;211.18;;;;;;;0.26;64.73;102877.17;1759635;77;21844;-60
2021/11/10 17:46:27;;;;;;;443.80;207.12;;;;;;;0.28;64.85;102869.94;1755261;77;21768;-60
2021/11/10 17:49:33;;;;;;;437.25;209.27;;;;;;;0.28;64.96;102871.28;1768085;77;21386;-60